Time;durP1;ratioP1;P1;durP2;ratioP2;P2;SDS_P1;SDS_P2;PMS_P1;PMS_P2;Temp;Humidity;BMP_temperature;BMP_pressure;BME280_temperature;BME280_humidity;BME280_pressure;Samples;Min_cycle;Max_cycle;Signal;HPM_P1;HPM_P2
2023/03/11 00:00:40;;;;;;;16.73;11.73;;;;;;;;;;5112330;28;20198;-79
2023/03/11 00:03:08;;;;;;;16.17;10.87;;;;;;;;;;5111848;28;20704;-80
2023/03/11 00:05:36;;;;;;;6.07;4.80;;;;;;;;;;5111897;28;20285;-81
2023/03/11 00:08:04;;;;;;;7.57;4.73;;;;;;;;;;5111642;28;20665;-80
2023/03/11 00:10:34;;;;;;;4.13;3.50;;;;;;;;;;5111655;28;20252;-81
2023/03/11 00:13:02;;;;;;;11.67;7.97;;;;;;;;;;5111939;28;20201;-80
2023/03/11 00:15:30;;;;;;;14.17;10.03;;;;;;;;;;5112409;28;20198;-80
2023/03/11 00:17:57;;;;;;;7.73;5.87;;;;;;;;;;5112125;28;20199;-80
2023/03/11 00:20:26;;;;;;;11.30;7.63;;;;;;;;;;5112143;28;20197;-81
2023/03/11 00:22:53;;;;;;;19.93;13.50;;;;;;;;;;5111311;28;20201;-81
2023/03/11 00:25:21;;;;;;;9.93;7.07;;;;;;;;;;5111691;28;20233;-80
2023/03/11 00:27:50;;;;;;;8.17;5.97;;;;;;;;;;5112362;28;20251;-81
2023/03/11 00:30:18;;;;;;;5.40;4.20;;;;;;;;;;5111417;28;20321;-79
2023/03/11 00:32:45;;;;;;;5.93;4.87;;;;;;;;;;5111830;28;20594;-80
2023/03/11 00:35:14;;;;;;;4.83;3.73;;;;;;;;;;5111467;28;20221;-79
2023/03/11 00:37:41;;;;;;;6.93;3.50;;;;;;;;;;5111536;28;20201;-78
2023/03/11 00:40:12;;;;;;;5.43;4.20;;;;;;;;;;5111759;28;20276;-81
2023/03/11 00:42:39;;;;;;;4.67;3.80;;;;;;;;;;5111503;28;20199;-79
2023/03/11 00:45:09;;;;;;;4.43;3.77;;;;;;;;;;5111461;28;20267;-78
2023/03/11 00:47:36;;;;;;;4.80;3.80;;;;;;;;;;5112720;28;20674;-80
2023/03/11 00:50:03;;;;;;;5.37;3.33;;;;;;;;;;5116278;28;20260;-79
2023/03/11 00:52:30;;;;;;;4.30;3.37;;;;;;;;;;5115387;27;20284;-78
2023/03/11 00:54:59;;;;;;;5.00;3.40;;;;;;;;;;5115713;28;20634;-80
2023/03/11 00:57:28;;;;;;;4.53;3.20;;;;;;;;;;5116069;28;20190;-79
2023/03/11 00:59:55;;;;;;;5.60;4.20;;;;;;;;;;5115329;28;20705;-79
2023/03/11 01:02:23;;;;;;;4.43;3.40;;;;;;;;;;5115396;28;20289;-81
2023/03/11 01:04:54;;;;;;;5.43;3.90;;;;;;;;;;5115449;28;20251;-81
2023/03/11 01:07:21;;;;;;;4.90;4.10;;;;;;;;;;5115742;28;20284;-81
2023/03/11 01:09:48;;;;;;;7.73;5.20;;;;;;;;;;5115704;28;20309;-79
2023/03/11 01:12:15;;;;;;;6.47;4.40;;;;;;;;;;5115300;28;20221;-80
2023/03/11 01:14:43;;;;;;;5.17;3.77;;;;;;;;;;5115139;28;20190;-81
2023/03/11 01:17:10;;;;;;;8.17;6.00;;;;;;;;;;5114832;28;20194;-81
2023/03/11 01:19:38;;;;;;;10.07;7.00;;;;;;;;;;5115495;27;20264;-81
2023/03/11 01:22:06;;;;;;;9.80;6.90;;;;;;;;;;5114599;28;20243;-81
2023/03/11 01:24:33;;;;;;;11.50;7.17;;;;;;;;;;5114904;28;20678;-80
2023/03/11 01:27:00;;;;;;;7.77;6.10;;;;;;;;;;5115293;28;20232;-80
2023/03/11 01:29:27;;;;;;;11.50;7.17;;;;;;;;;;5115207;28;20700;-81
2023/03/11 01:31:55;;;;;;;11.87;7.70;;;;;;;;;;5115188;28;20228;-81
2023/03/11 01:34:22;;;;;;;9.73;6.70;;;;;;;;;;5114752;28;20322;-80
2023/03/11 01:36:50;;;;;;;9.57;6.40;;;;;;;;;;5114697;28;20260;-81
2023/03/11 01:39:18;;;;;;;10.17;7.47;;;;;;;;;;5114569;28;20221;-80
2023/03/11 01:41:45;;;;;;;9.00;6.70;;;;;;;;;;5114802;28;20234;-80
2023/03/11 01:44:12;;;;;;;8.13;5.87;;;;;;;;;;5114649;28;21033;-80
2023/03/11 01:46:57;;;;;;;9.53;6.70;;;;;;;;;;5114708;28;20265;-80
2023/03/11 01:49:24;;;;;;;6.90;5.37;;;;;;;;;;5114267;28;20704;-80
2023/03/11 01:51:55;;;;;;;7.10;4.30;;;;;;;;;;5114505;28;20202;-80
2023/03/11 01:54:24;;;;;;;8.20;4.80;;;;;;;;;;5114598;28;20246;-80
2023/03/11 01:56:52;;;;;;;6.57;4.67;;;;;;;;;;5114811;28;20706;-81
2023/03/11 01:59:22;;;;;;;6.87;4.97;;;;;;;;;;5114519;28;20220;-81
2023/03/11 02:01:51;;;;;;;7.40;5.67;;;;;;;;;;5114783;28;20272;-79
2023/03/11 02:04:20;;;;;;;8.20;5.50;;;;;;;;;;5113776;28;20258;-80
2023/03/11 02:06:48;;;;;;;6.87;4.73;;;;;;;;;;5114208;28;20239;-79
2023/03/11 02:09:17;;;;;;;8.93;5.83;;;;;;;;;;5114374;28;20646;-80
2023/03/11 02:11:44;;;;;;;17.43;12.10;;;;;;;;;;5114318;28;20277;-81
2023/03/11 02:14:11;;;;;;;11.23;7.20;;;;;;;;;;5113870;28;20197;-80
2023/03/11 02:16:38;;;;;;;9.90;8.00;;;;;;;;;;5111599;28;20190;-78
2023/03/11 02:19:13;;;;;;;8.13;5.67;;;;;;;;;;5101430;28;20716;-79
2023/03/11 02:21:40;;;;;;;8.17;5.40;;;;;;;;;;5114306;28;20233;-79
2023/03/11 02:24:12;;;;;;;11.50;6.83;;;;;;;;;;5114175;28;20281;-79
2023/03/11 02:26:43;;;;;;;8.33;6.43;;;;;;;;;;5114068;28;20217;-80
2023/03/11 02:29:12;;;;;;;7.73;5.13;;;;;;;;;;5113794;27;20225;-79
2023/03/11 02:31:40;;;;;;;7.47;6.00;;;;;;;;;;5113992;28;20321;-79
2023/03/11 02:34:12;;;;;;;7.10;5.00;;;;;;;;;;5113596;28;20198;-81
2023/03/11 02:36:40;;;;;;;7.47;5.77;;;;;;;;;;5113818;28;20248;-81
2023/03/11 02:39:08;;;;;;;8.87;6.00;;;;;;;;;;5114152;28;20194;-81
2023/03/11 02:41:37;;;;;;;9.87;6.77;;;;;;;;;;5113515;28;20251;-81
2023/03/11 02:44:05;;;;;;;9.07;6.73;;;;;;;;;;5113607;28;20260;-81
2023/03/11 02:46:35;;;;;;;14.63;10.50;;;;;;;;;;5113410;28;20324;-81
2023/03/11 02:49:02;;;;;;;11.50;7.27;;;;;;;;;;5113408;28;20217;-80
2023/03/11 02:51:29;;;;;;;11.40;7.93;;;;;;;;;;5112828;28;20323;-80
2023/03/11 02:53:58;;;;;;;22.60;13.17;;;;;;;;;;5113859;28;20260;-80
2023/03/11 02:56:25;;;;;;;9.97;6.70;;;;;;;;;;5113044;28;20292;-80
2023/03/11 02:58:53;;;;;;;11.30;6.70;;;;;;;;;;5114049;28;20577;-81
2023/03/11 03:01:20;;;;;;;16.93;9.70;;;;;;;;;;5113063;27;20273;-80
2023/03/11 03:03:49;;;;;;;8.53;6.73;;;;;;;;;;5112942;28;20250;-81
2023/03/11 03:06:16;;;;;;;8.67;5.73;;;;;;;;;;5113478;28;20284;-80
2023/03/11 03:08:43;;;;;;;8.20;6.17;;;;;;;;;;5114070;28;20193;-80
2023/03/11 03:11:11;;;;;;;5.77;4.10;;;;;;;;;;5111728;28;20272;-81
2023/03/11 03:13:38;;;;;;;6.90;5.03;;;;;;;;;;5113220;28;20281;-80
2023/03/11 03:16:05;;;;;;;7.07;3.87;;;;;;;;;;5113314;28;20581;-80
2023/03/11 03:18:33;;;;;;;5.70;4.30;;;;;;;;;;5112771;28;20196;-81
2023/03/11 03:21:01;;;;;;;5.77;3.83;;;;;;;;;;5113053;28;20301;-81
2023/03/11 03:23:28;;;;;;;6.03;3.80;;;;;;;;;;5110332;27;20193;-81
2023/03/11 03:25:56;;;;;;;6.67;5.03;;;;;;;;;;5098978;28;20945;-81
2023/03/11 03:28:23;;;;;;;4.90;3.80;;;;;;;;;;5113269;28;20633;-80
2023/03/11 03:30:50;;;;;;;8.30;4.90;;;;;;;;;;5112465;28;20252;-80
2023/03/11 03:33:17;;;;;;;8.17;5.27;;;;;;;;;;5112730;28;20236;-80
2023/03/11 03:35:45;;;;;;;6.87;4.73;;;;;;;;;;5112288;28;20225;-80
2023/03/11 03:38:14;;;;;;;5.23;3.63;;;;;;;;;;5113088;28;20237;-80
2023/03/11 03:40:46;;;;;;;4.63;3.40;;;;;;;;;;5112606;28;20244;-80
2023/03/11 03:43:13;;;;;;;6.33;4.30;;;;;;;;;;5112420;28;20752;-79
2023/03/11 03:45:40;;;;;;;7.70;5.77;;;;;;;;;;5111975;28;20660;-80
2023/03/11 03:48:07;;;;;;;6.60;4.70;;;;;;;;;;5112305;28;20232;-80
2023/03/11 03:50:35;;;;;;;7.80;4.93;;;;;;;;;;5112298;28;20313;-80
2023/03/11 03:53:02;;;;;;;6.53;4.40;;;;;;;;;;5112583;28;20226;-81
2023/03/11 03:55:30;;;;;;;5.70;4.23;;;;;;;;;;5112485;28;20285;-80
2023/03/11 03:57:58;;;;;;;11.27;6.87;;;;;;;;;;5112351;28;20232;-80
2023/03/11 04:00:25;;;;;;;11.00;6.77;;;;;;;;;;5112178;28;20221;-80
2023/03/11 04:02:52;;;;;;;9.13;5.53;;;;;;;;;;5112334;28;20232;-80
2023/03/11 04:05:19;;;;;;;5.57;4.33;;;;;;;;;;5111715;28;20292;-80
2023/03/11 04:07:47;;;;;;;5.67;4.23;;;;;;;;;;5111597;28;20198;-80
2023/03/11 04:10:14;;;;;;;5.83;4.10;;;;;;;;;;5112408;28;20292;-80
2023/03/11 04:12:43;;;;;;;4.73;3.17;;;;;;;;;;5112241;28;20229;-81
2023/03/11 04:15:10;;;;;;;5.17;3.43;;;;;;;;;;5111636;28;20587;-80
2023/03/11 04:17:38;;;;;;;4.53;3.20;;;;;;;;;;5111837;28;20714;-80
2023/03/11 04:20:07;;;;;;;3.67;2.73;;;;;;;;;;5112070;28;20234;-80
2023/03/11 04:22:34;;;;;;;5.27;3.07;;;;;;;;;;5111134;28;20197;-80
2023/03/11 04:25:01;;;;;;;3.30;2.40;;;;;;;;;;5111971;28;20203;-79
2023/03/11 04:27:28;;;;;;;3.70;2.67;;;;;;;;;;5111594;28;20193;-81
2023/03/11 04:29:57;;;;;;;3.50;2.43;;;;;;;;;;5111399;27;20205;-80
2023/03/11 04:32:24;;;;;;;4.40;2.73;;;;;;;;;;5111680;28;20333;-80
2023/03/11 04:34:51;;;;;;;7.97;4.63;;;;;;;;;;5111827;28;20230;-81
2023/03/11 04:37:18;;;;;;;4.77;3.40;;;;;;;;;;5111744;28;20210;-80
2023/03/11 04:39:46;;;;;;;4.83;2.93;;;;;;;;;;5111267;28;20738;-80
2023/03/11 04:42:14;;;;;;;3.70;2.70;;;;;;;;;;5111685;28;20644;-81
2023/03/11 04:44:41;;;;;;;5.03;2.47;;;;;;;;;;5110654;28;20745;-80
2023/03/11 04:47:10;;;;;;;3.47;2.10;;;;;;;;;;5112000;28;20284;-80
2023/03/11 04:49:37;;;;;;;2.80;2.07;;;;;;;;;;5111432;28;20600;-80
2023/03/11 04:52:04;;;;;;;3.50;2.07;;;;;;;;;;5111261;28;20333;-81
2023/03/11 04:54:31;;;;;;;2.80;2.00;;;;;;;;;;5111459;28;20243;-80
2023/03/11 04:56:59;;;;;;;3.33;2.50;;;;;;;;;;5111542;28;20657;-81
2023/03/11 04:59:26;;;;;;;4.50;2.77;;;;;;;;;;5111299;28;20191;-80
2023/03/11 05:01:53;;;;;;;3.40;2.23;;;;;;;;;;5111718;28;20968;-81
2023/03/11 05:04:22;;;;;;;2.70;2.13;;;;;;;;;;5111222;28;20207;-80
2023/03/11 05:06:50;;;;;;;4.00;2.53;;;;;;;;;;5111326;28;20236;-81
2023/03/11 05:09:18;;;;;;;3.53;2.40;;;;;;;;;;5111455;28;20196;-80
2023/03/11 05:11:45;;;;;;;3.50;2.50;;;;;;;;;;5111489;28;20323;-80
2023/03/11 05:14:12;;;;;;;3.47;2.30;;;;;;;;;;5111270;28;20227;-80
2023/03/11 05:16:39;;;;;;;3.17;2.40;;;;;;;;;;5110925;28;20199;-80
2023/03/11 05:19:29;;;;;;;3.00;2.27;;;;;;;;;;5111118;28;20232;-80
2023/03/11 05:21:55;;;;;;;3.20;2.30;;;;;;;;;;5110241;28;20190;-80
2023/03/11 05:24:24;;;;;;;3.23;2.57;;;;;;;;;;5110583;28;20228;-80
2023/03/11 05:26:51;;;;;;;3.73;2.40;;;;;;;;;;5110766;28;20239;-80
2023/03/11 05:29:18;;;;;;;4.10;2.90;;;;;;;;;;5111188;28;20237;-80
2023/03/11 05:31:46;;;;;;;3.20;2.50;;;;;;;;;;5110822;28;20256;-80
2023/03/11 05:34:13;;;;;;;3.80;2.47;;;;;;;;;;5111477;28;20194;-80
2023/03/11 05:36:40;;;;;;;4.00;2.73;;;;;;;;;;5114836;28;20247;-81
2023/03/11 05:39:09;;;;;;;3.87;2.80;;;;;;;;;;5114915;28;20276;-81
2023/03/11 05:41:36;;;;;;;4.40;3.10;;;;;;;;;;5114171;28;20218;-80
2023/03/11 05:44:04;;;;;;;3.97;3.00;;;;;;;;;;5114837;28;20634;-80
2023/03/11 05:46:32;;;;;;;4.47;3.50;;;;;;;;;;5114674;28;20261;-80
2023/03/11 05:48:59;;;;;;;4.30;3.27;;;;;;;;;;5114471;28;20201;-80
2023/03/11 05:51:26;;;;;;;4.27;3.43;;;;;;;;;;5114242;28;20324;-80
2023/03/11 05:53:54;;;;;;;5.13;3.23;;;;;;;;;;5114458;28;20276;-79
2023/03/11 05:56:23;;;;;;;4.07;3.03;;;;;;;;;;5114536;28;20195;-80
2023/03/11 05:58:51;;;;;;;5.23;3.13;;;;;;;;;;5114080;28;20231;-80
2023/03/11 06:01:19;;;;;;;4.47;3.27;;;;;;;;;;5114169;28;20250;-79
2023/03/11 06:03:46;;;;;;;4.20;3.30;;;;;;;;;;5114704;28;20554;-80
2023/03/11 06:06:14;;;;;;;3.83;3.20;;;;;;;;;;5114237;27;20222;-81
2023/03/11 06:08:44;;;;;;;4.83;3.57;;;;;;;;;;5114367;28;20222;-80
2023/03/11 06:11:12;;;;;;;5.90;3.30;;;;;;;;;;5113923;27;20639;-81
2023/03/11 06:13:40;;;;;;;4.40;3.60;;;;;;;;;;5106947;28;20242;-81
2023/03/11 06:16:08;;;;;;;4.27;3.30;;;;;;;;;;5096096;28;20233;-80
2023/03/11 06:18:35;;;;;;;5.27;3.63;;;;;;;;;;5093585;28;20234;-80
2023/03/11 06:21:03;;;;;;;4.03;3.40;;;;;;;;;;5094149;28;20237;-80
2023/03/11 06:23:31;;;;;;;4.80;3.73;;;;;;;;;;5093517;28;20734;-80
2023/03/11 06:25:58;;;;;;;5.07;3.67;;;;;;;;;;5095533;28;20231;-80
2023/03/11 06:28:25;;;;;;;4.70;3.50;;;;;;;;;;5101501;28;20241;-80
2023/03/11 06:30:57;;;;;;;5.47;4.03;;;;;;;;;;5114058;28;20668;-80
2023/03/11 06:33:24;;;;;;;5.43;4.20;;;;;;;;;;5113391;28;20197;-80
2023/03/11 06:35:58;;;;;;;6.43;3.83;;;;;;;;;;5113709;28;20193;-80
2023/03/11 06:38:25;;;;;;;5.37;3.87;;;;;;;;;;5114179;28;20729;-80
2023/03/11 06:40:53;;;;;;;5.20;4.03;;;;;;;;;;5114009;27;20236;-80
2023/03/11 06:43:20;;;;;;;7.00;4.20;;;;;;;;;;5113089;28;20196;-81
2023/03/11 06:45:47;;;;;;;7.40;4.30;;;;;;;;;;5113259;28;20668;-81
2023/03/11 06:48:16;;;;;;;6.70;4.23;;;;;;;;;;5113135;28;20233;-80
2023/03/11 06:50:43;;;;;;;5.60;4.23;;;;;;;;;;5113196;28;20215;-81
2023/03/11 06:53:10;;;;;;;5.33;4.00;;;;;;;;;;5113226;28;20313;-81
2023/03/11 06:55:38;;;;;;;6.07;4.70;;;;;;;;;;5113431;28;20229;-81
2023/03/11 06:58:05;;;;;;;6.77;4.40;;;;;;;;;;5113157;28;20202;-80
2023/03/11 07:00:32;;;;;;;5.53;4.27;;;;;;;;;;5113462;28;20199;-80
2023/03/11 07:02:59;;;;;;;5.73;4.40;;;;;;;;;;5113326;28;20290;-80
2023/03/11 07:05:28;;;;;;;7.00;4.40;;;;;;;;;;5113314;28;20225;-80
2023/03/11 07:07:55;;;;;;;6.07;4.30;;;;;;;;;;5113528;28;20231;-80
2023/03/11 07:10:22;;;;;;;5.70;4.43;;;;;;;;;;5112841;28;20706;-80
2023/03/11 07:12:50;;;;;;;7.00;4.17;;;;;;;;;;5112814;28;20913;-80
2023/03/11 07:15:17;;;;;;;24.33;14.37;;;;;;;;;;5113558;28;20221;-80
2023/03/11 07:17:44;;;;;;;7.17;5.10;;;;;;;;;;5113049;28;20225;-80
2023/03/11 07:20:12;;;;;;;5.60;4.53;;;;;;;;;;5112783;28;20667;-80
2023/03/11 07:22:41;;;;;;;7.97;5.90;;;;;;;;;;5112623;28;20215;-81
2023/03/11 07:25:09;;;;;;;15.77;11.63;;;;;;;;;;5113080;28;20381;-81
2023/03/11 07:27:36;;;;;;;8.30;6.07;;;;;;;;;;5103040;28;20200;-80
2023/03/11 07:30:04;;;;;;;13.33;10.80;;;;;;;;;;5106717;28;20243;-82
2023/03/11 07:32:31;;;;;;;15.90;12.27;;;;;;;;;;5112252;28;20228;-80
2023/03/11 07:34:58;;;;;;;10.63;9.13;;;;;;;;;;5112954;28;20695;-80
2023/03/11 07:37:25;;;;;;;6.90;4.43;;;;;;;;;;5112491;28;20217;-81
2023/03/11 07:39:54;;;;;;;9.17;7.03;;;;;;;;;;5112529;28;20238;-80
2023/03/11 07:42:22;;;;;;;6.10;4.90;;;;;;;;;;5113061;28;20191;-83
2023/03/11 07:44:51;;;;;;;7.90;4.73;;;;;;;;;;5112868;28;20271;-80
2023/03/11 07:47:18;;;;;;;5.73;4.27;;;;;;;;;;5112619;28;20204;-81
2023/03/11 07:49:45;;;;;;;7.97;4.80;;;;;;;;;;5112370;28;20200;-80
2023/03/11 07:52:13;;;;;;;6.10;4.50;;;;;;;;;;5111941;28;20242;-81
2023/03/11 07:54:40;;;;;;;8.97;7.20;;;;;;;;;;5112364;28;20608;-80
2023/03/11 07:57:15;;;;;;;6.70;4.97;;;;;;;;;;5112067;28;20253;-81
2023/03/11 07:59:43;;;;;;;8.83;6.30;;;;;;;;;;5112371;28;20225;-80
2023/03/11 08:02:10;;;;;;;12.90;10.27;;;;;;;;;;5112599;28;20194;-81
2023/03/11 08:04:38;;;;;;;6.23;4.90;;;;;;;;;;5111122;28;20201;-81
2023/03/11 08:07:05;;;;;;;5.67;4.30;;;;;;;;;;5102526;28;20647;-80
2023/03/11 08:09:32;;;;;;;5.90;4.43;;;;;;;;;;5105526;28;20296;-80
2023/03/11 08:11:59;;;;;;;7.73;5.33;;;;;;;;;;5112014;28;20302;-80
2023/03/11 08:14:28;;;;;;;5.83;4.57;;;;;;;;;;5107065;28;20297;-80
2023/03/11 08:16:55;;;;;;;5.80;4.23;;;;;;;;;;5091653;28;20291;-78
2023/03/11 08:19:22;;;;;;;6.30;4.10;;;;;;;;;;5091870;28;20221;-80
2023/03/11 08:21:50;;;;;;;4.60;3.90;;;;;;;;;;5090879;28;20232;-78
2023/03/11 08:24:17;;;;;;;5.63;3.30;;;;;;;;;;5091685;28;20233;-79
2023/03/11 08:26:44;;;;;;;5.90;4.43;;;;;;;;;;5091611;28;20320;-80
2023/03/11 08:29:11;;;;;;;5.10;3.90;;;;;;;;;;5091023;28;20198;-79
2023/03/11 08:31:40;;;;;;;4.40;3.27;;;;;;;;;;5090977;28;20684;-79
2023/03/11 08:34:09;;;;;;;4.47;3.43;;;;;;;;;;5090975;28;20202;-80
2023/03/11 08:36:36;;;;;;;4.63;3.60;;;;;;;;;;5091210;28;20321;-78
2023/03/11 08:39:03;;;;;;;5.80;3.80;;;;;;;;;;5091465;28;20221;-77
2023/03/11 08:41:31;;;;;;;7.57;5.73;;;;;;;;;;5108385;28;20291;-77
2023/03/11 08:43:58;;;;;;;5.67;4.30;;;;;;;;;;5109814;28;20299;-77
2023/03/11 08:46:26;;;;;;;9.03;5.67;;;;;;;;;;5098975;28;20316;-76
2023/03/11 08:48:55;;;;;;;28.80;12.73;;;;;;;;;;5111242;28;20230;-76
2023/03/11 08:51:23;;;;;;;30.07;15.80;;;;;;;;;;5110527;28;20193;-76
2023/03/11 08:53:51;;;;;;;18.80;10.70;;;;;;;;;;5111748;28;20269;-76
2023/03/11 08:56:18;;;;;;;9.53;6.23;;;;;;;;;;5111607;28;20271;-76
2023/03/11 08:58:45;;;;;;;5.00;3.77;;;;;;;;;;5111847;28;20664;-76
2023/03/11 09:01:13;;;;;;;11.00;7.13;;;;;;;;;;5111071;28;20279;-77
2023/03/11 09:03:40;;;;;;;11.47;7.90;;;;;;;;;;5111189;28;20226;-76
2023/03/11 09:06:12;;;;;;;7.20;4.80;;;;;;;;;;5108969;28;20224;-76
2023/03/11 09:08:39;;;;;;;5.13;3.80;;;;;;;;;;5111634;28;20728;-76
2023/03/11 09:11:06;;;;;;;4.90;3.87;;;;;;;;;;5115356;28;20271;-76
2023/03/11 09:13:34;;;;;;;4.93;3.60;;;;;;;;;;5115844;27;20251;-77
2023/03/11 09:16:01;;;;;;;6.00;5.20;;;;;;;;;;5115399;28;20193;-76
2023/03/11 09:18:28;;;;;;;4.13;3.33;;;;;;;;;;5115293;28;20229;-76
2023/03/11 09:20:57;;;;;;;4.13;3.37;;;;;;;;;;5115092;28;20293;-76
2023/03/11 09:23:25;;;;;;;4.93;3.30;;;;;;;;;;5115368;28;20671;-76
2023/03/11 09:25:53;;;;;;;4.33;3.30;;;;;;;;;;5115686;28;20201;-76
2023/03/11 09:28:20;;;;;;;3.93;2.87;;;;;;;;;;5115751;27;20190;-76
2023/03/11 09:30:47;;;;;;;3.97;2.93;;;;;;;;;;5135453;27;20232;-76
2023/03/11 09:33:14;;;;;;;3.47;2.90;;;;;;;;;;5115231;27;20710;-76
2023/03/11 09:35:41;;;;;;;3.97;3.07;;;;;;;;;;5114741;28;20766;-76
2023/03/11 09:38:09;;;;;;;3.70;2.90;;;;;;;;;;5114480;28;20224;-77
2023/03/11 09:40:57;;;;;;;3.47;2.67;;;;;;;;;;5114686;28;20292;-77
2023/03/11 09:43:30;;;;;;;3.93;3.10;;;;;;;;;;5114613;28;20705;-76
2023/03/11 09:46:03;;;;;;;3.43;2.70;;;;;;;;;;5115111;28;20280;-76
2023/03/11 09:48:32;;;;;;;6.40;3.97;;;;;;;;;;5114506;28;20194;-76
2023/03/11 09:51:00;;;;;;;4.07;2.93;;;;;;;;;;5115538;27;20219;-75
2023/03/11 09:53:34;;;;;;;3.57;2.70;;;;;;;;;;5113528;28;20602;-75
2023/03/11 09:56:06;;;;;;;4.73;3.33;;;;;;;;;;5115010;28;20567;-76
2023/03/11 09:58:37;;;;;;;5.30;3.00;;;;;;;;;;5113955;28;20229;-76
2023/03/11 10:01:05;;;;;;;3.60;2.70;;;;;;;;;;5114678;28;20236;-75
2023/03/11 10:03:33;;;;;;;3.27;2.60;;;;;;;;;;5114470;28;20289;-76
2023/03/11 10:06:14;;;;;;;3.30;2.43;;;;;;;;;;5114682;28;20236;-74
2023/03/11 10:08:44;;;;;;;3.77;3.00;;;;;;;;;;5114824;28;20280;-77
2023/03/11 10:11:20;;;;;;;4.10;2.97;;;;;;;;;;5114558;28;20723;-77
2023/03/11 10:13:52;;;;;;;3.23;2.53;;;;;;;;;;5112665;28;20270;-75
2023/03/11 10:16:22;;;;;;;4.53;4.03;;;;;;;;;;5114622;28;20243;-76
2023/03/11 10:18:54;;;;;;;4.10;3.70;;;;;;;;;;5114146;27;20620;-77
2023/03/11 10:21:27;;;;;;;3.70;2.50;;;;;;;;;;5112219;28;20576;-76
2023/03/11 10:24:02;;;;;;;3.30;2.70;;;;;;;;;;5114216;28;20233;-75
2023/03/11 10:26:34;;;;;;;2.83;1.97;;;;;;;;;;5112656;28;20210;-74
2023/03/11 10:29:04;;;;;;;3.20;2.47;;;;;;;;;;5114042;28;20246;-75
2023/03/11 10:31:33;;;;;;;2.77;2.57;;;;;;;;;;5113276;28;20280;-74
2023/03/11 10:34:03;;;;;;;3.10;2.40;;;;;;;;;;5114253;28;20268;-74
2023/03/11 10:36:34;;;;;;;3.10;2.33;;;;;;;;;;5114786;27;20278;-75
2023/03/11 10:39:03;;;;;;;3.97;2.67;;;;;;;;;;5110119;28;20221;-75
2023/03/11 10:41:32;;;;;;;3.37;2.80;;;;;;;;;;5113501;28;20617;-76
2023/03/11 10:44:02;;;;;;;3.23;2.60;;;;;;;;;;5113530;28;20284;-75
2023/03/11 10:46:30;;;;;;;3.50;2.93;;;;;;;;;;5113359;27;20625;-74
2023/03/11 10:48:57;;;;;;;4.83;4.23;;;;;;;;;;5114004;27;20221;-74
2023/03/11 10:51:26;;;;;;;3.57;2.90;;;;;;;;;;5114018;28;20288;-75
2023/03/11 10:53:54;;;;;;;7.10;5.67;;;;;;;;;;5114142;27;20313;-75
2023/03/11 10:56:26;;;;;;;3.00;2.50;;;;;;;;;;5113823;28;20247;-75
2023/03/11 10:58:55;;;;;;;3.77;3.00;;;;;;;;;;5113201;27;20697;-75
2023/03/11 11:01:22;;;;;;;2.67;2.37;;;;;;;;;;5113060;28;20209;-75
2023/03/11 11:03:50;;;;;;;3.50;3.00;;;;;;;;;;5112878;28;20240;-75
2023/03/11 11:06:24;;;;;;;3.60;2.57;;;;;;;;;;5113200;28;20237;-75
2023/03/11 11:09:05;;;;;;;3.70;2.30;;;;;;;;;;5112855;28;20190;-74
2023/03/11 11:11:32;;;;;;;3.23;2.50;;;;;;;;;;5113051;27;20600;-75
2023/03/11 11:14:01;;;;;;;3.67;2.60;;;;;;;;;;5112686;28;20236;-76
2023/03/11 11:16:29;;;;;;;2.67;2.33;;;;;;;;;;5112887;28;20221;-75
2023/03/11 11:19:00;;;;;;;3.87;3.07;;;;;;;;;;5112939;28;20225;-75
2023/03/11 11:21:29;;;;;;;2.97;2.57;;;;;;;;;;5112698;28;20330;-76
2023/03/11 11:24:05;;;;;;;4.87;3.87;;;;;;;;;;5112812;28;20190;-75
2023/03/11 11:26:32;;;;;;;4.37;3.63;;;;;;;;;;5113045;28;20216;-76
2023/03/11 11:29:08;;;;;;;8.80;6.43;;;;;;;;;;5113267;27;20239;-73
2023/03/11 11:31:35;;;;;;;3.97;3.57;;;;;;;;;;5111573;28;20276;-74
2023/03/11 11:34:02;;;;;;;2.77;2.40;;;;;;;;;;5112645;28;20268;-77
2023/03/11 11:36:31;;;;;;;3.57;3.10;;;;;;;;;;5112173;28;20233;-77
2023/03/11 11:39:01;;;;;;;3.00;2.40;;;;;;;;;;5112790;28;20277;-76
2023/03/11 11:41:29;;;;;;;3.30;2.57;;;;;;;;;;5112467;28;20191;-76
2023/03/11 11:43:58;;;;;;;3.13;2.37;;;;;;;;;;5112244;28;20671;-76
2023/03/11 11:46:30;;;;;;;2.13;1.90;;;;;;;;;;5115634;27;20733;-76
2023/03/11 11:49:00;;;;;;;2.40;1.93;;;;;;;;;;5112265;28;20665;-75
2023/03/11 11:51:31;;;;;;;3.30;2.57;;;;;;;;;;5112092;28;20220;-76
2023/03/11 11:54:00;;;;;;;2.10;1.90;;;;;;;;;;5111902;28;20289;-77
2023/03/11 11:56:28;;;;;;;2.87;2.43;;;;;;;;;;5109678;28;20204;-76
2023/03/11 11:58:55;;;;;;;2.30;1.90;;;;;;;;;;5112113;28;20289;-77
2023/03/11 12:01:28;;;;;;;2.33;2.13;;;;;;;;;;5109363;28;20205;-77
2023/03/11 12:04:09;;;;;;;2.77;2.30;;;;;;;;;;5111459;27;20294;-77
2023/03/11 12:06:41;;;;;;;2.30;2.07;;;;;;;;;;5115580;27;20194;-76
2023/03/11 12:09:14;;;;;;;2.57;2.23;;;;;;;;;;5112119;28;20276;-77
2023/03/11 12:11:45;;;;;;;2.70;2.10;;;;;;;;;;5111160;28;20272;-77
2023/03/11 12:14:16;;;;;;;3.97;2.40;;;;;;;;;;5111759;27;20328;-77
2023/03/11 12:16:46;;;;;;;2.77;2.37;;;;;;;;;;5112156;28;20208;-77
2023/03/11 12:19:21;;;;;;;4.00;2.87;;;;;;;;;;5112448;28;20205;-76
2023/03/11 12:22:00;;;;;;;3.40;2.70;;;;;;;;;;5109579;28;20253;-76
2023/03/11 12:24:41;;;;;;;3.13;2.40;;;;;;;;;;5091473;28;20297;-78
2023/03/11 12:27:13;;;;;;;3.40;2.80;;;;;;;;;;5108285;28;20280;-76
2023/03/11 12:29:42;;;;;;;3.40;3.10;;;;;;;;;;5111879;28;20350;-76
2023/03/11 12:32:11;;;;;;;3.97;3.40;;;;;;;;;;5111999;28;20221;-76
2023/03/11 12:34:40;;;;;;;4.03;2.90;;;;;;;;;;5114958;27;20314;-75
2023/03/11 12:37:13;;;;;;;3.30;3.00;;;;;;;;;;5112182;27;20197;-75
2023/03/11 12:39:41;;;;;;;3.20;2.90;;;;;;;;;;5111919;28;20266;-75
2023/03/11 12:42:19;;;;;;;4.43;3.50;;;;;;;;;;5111170;28;20212;-76
2023/03/11 12:44:47;;;;;;;3.60;3.30;;;;;;;;;;5110134;28;20236;-76
2023/03/11 12:47:27;;;;;;;4.33;2.97;;;;;;;;;;5110551;28;20236;-77
2023/03/11 12:49:57;;;;;;;4.13;3.10;;;;;;;;;;5109226;28;20193;-75
2023/03/11 12:52:26;;;;;;;4.27;3.50;;;;;;;;;;5111542;28;20247;-74
2023/03/11 12:55:23;;;;;;;3.90;3.40;;;;;;;;;;5109197;28;20217;-76
2023/03/11 12:57:54;;;;;;;3.10;2.80;;;;;;;;;;5031928;28;20204;-77
2023/03/11 13:00:29;;;;;;;4.57;2.80;;;;;;;;;;5041116;28;20362;-78
2023/03/11 13:03:20;;;;;;;4.00;2.83;;;;;;;;;;5039809;28;20218;-77
2023/03/11 13:05:59;;;;;;;2.17;1.97;;;;;;;;;;5048499;28;20294;-76
2023/03/11 13:08:26;;;;;;;2.57;2.33;;;;;;;;;;5048073;28;20326;-77
2023/03/11 13:10:54;;;;;;;2.60;2.20;;;;;;;;;;5028704;28;20219;-74
2023/03/11 13:13:38;;;;;;;2.10;1.70;;;;;;;;;;5043121;28;20314;-77
2023/03/11 13:16:23;;;;;;;1.90;1.60;;;;;;;;;;5048519;28;20289;-76
2023/03/11 13:18:50;;;;;;;1.87;1.60;;;;;;;;;;5039350;28;20220;-76
2023/03/11 13:21:33;;;;;;;1.97;1.77;;;;;;;;;;5047856;28;20192;-77
2023/03/11 13:24:15;;;;;;;2.77;2.50;;;;;;;;;;5033339;28;20318;-76
2023/03/11 13:26:45;;;;;;;2.80;2.47;;;;;;;;;;5038750;28;20231;-76
2023/03/11 13:29:30;;;;;;;3.07;2.77;;;;;;;;;;5048271;28;20270;-77
2023/03/11 13:32:03;;;;;;;2.80;2.43;;;;;;;;;;5068189;28;20273;-77
2023/03/11 13:34:35;;;;;;;3.10;2.70;;;;;;;;;;5090885;28;20317;-76
2023/03/11 13:37:15;;;;;;;3.20;2.23;;;;;;;;;;5091146;28;20218;-77
2023/03/11 13:39:50;;;;;;;3.37;3.00;;;;;;;;;;5090334;28;20195;-77
2023/03/11 13:42:22;;;;;;;3.50;2.70;;;;;;;;;;5091107;28;20223;-76
2023/03/11 13:44:49;;;;;;;2.63;2.40;;;;;;;;;;5090985;28;20233;-77
2023/03/11 13:47:18;;;;;;;3.13;2.83;;;;;;;;;;5090782;28;20286;-77
2023/03/11 13:49:47;;;;;;;3.30;2.63;;;;;;;;;;5090576;28;20298;-77
2023/03/11 13:52:15;;;;;;;3.13;2.83;;;;;;;;;;5091137;28;20667;-77
2023/03/11 13:54:45;;;;;;;3.10;2.60;;;;;;;;;;5090504;28;20321;-78
2023/03/11 13:57:26;;;;;;;4.13;2.97;;;;;;;;;;5094403;28;20237;-77
2023/03/11 13:59:54;;;;;;;4.33;3.47;;;;;;;;;;5094115;28;20308;-76
2023/03/11 14:02:22;;;;;;;4.70;3.80;;;;;;;;;;5094834;28;20241;-77
2023/03/11 14:04:50;;;;;;;3.90;3.50;;;;;;;;;;5094023;28;20635;-76
2023/03/11 14:07:22;;;;;;;4.00;3.43;;;;;;;;;;5094765;28;20194;-77
2023/03/11 14:09:49;;;;;;;5.53;4.40;;;;;;;;;;5093895;28;20255;-76
2023/03/11 14:12:16;;;;;;;4.33;3.90;;;;;;;;;;5099996;28;20289;-76
2023/03/11 14:14:48;;;;;;;4.17;3.43;;;;;;;;;;5114225;28;20267;-76
2023/03/11 14:17:17;;;;;;;5.50;4.80;;;;;;;;;;5114410;28;20216;-76
2023/03/11 14:19:44;;;;;;;5.83;4.17;;;;;;;;;;5111062;27;20251;-77
2023/03/11 14:22:11;;;;;;;4.50;3.90;;;;;;;;;;5111613;27;20296;-77
2023/03/11 14:24:39;;;;;;;5.60;4.33;;;;;;;;;;5116217;27;20618;-77
2023/03/11 14:27:09;;;;;;;4.60;4.07;;;;;;;;;;5113955;27;20190;-77
2023/03/11 14:29:37;;;;;;;5.30;3.77;;;;;;;;;;5120695;27;20285;-78
2023/03/11 14:32:18;;;;;;;4.50;3.97;;;;;;;;;;5112232;27;20280;-76
2023/03/11 14:34:45;;;;;;;5.57;4.40;;;;;;;;;;5098502;28;20270;-76
2023/03/11 14:37:23;;;;;;;5.60;4.60;;;;;;;;;;5112779;27;20752;-74
2023/03/11 14:39:50;;;;;;;8.13;5.97;;;;;;;;;;5115176;27;20273;-75
2023/03/11 14:42:19;;;;;;;6.87;5.30;;;;;;;;;;5120903;27;20198;-77
2023/03/11 14:44:48;;;;;;;6.67;5.50;;;;;;;;;;5122093;27;20286;-77
2023/03/11 14:47:19;;;;;;;6.83;4.93;;;;;;;;;;5118010;27;20742;-76
2023/03/11 14:49:48;;;;;;;6.37;5.20;;;;;;;;;;5114371;27;20585;-76
2023/03/11 14:52:19;;;;;;;6.33;5.40;;;;;;;;;;5117413;27;20650;-76